createdAt,value
2018-09-24T00:04:05.955Z,22.30
2018-09-24T00:08:48.825Z,22.29
2018-09-24T00:13:31.888Z,22.37
2018-09-24T00:18:14.741Z,22.27
2018-09-24T00:22:57.674Z,22.15
2018-09-24T00:27:40.491Z,22.16
2018-09-24T00:32:23.438Z,22.15
2018-09-24T00:37:06.366Z,22.23
2018-09-24T00:41:49.578Z,22.31
2018-09-24T00:46:32.502Z,22.15
2018-09-24T00:51:15.366Z,22.27
2018-09-24T00:55:58.748Z,22.18
2018-09-24T01:00:41.706Z,22.30
2018-09-24T01:05:24.872Z,22.23
2018-09-24T01:10:08.215Z,22.31
2018-09-24T01:23:50.093Z,22.21
2018-09-24T01:28:32.983Z,22.21
2018-09-24T01:33:16.130Z,22.24
2018-09-24T01:37:58.982Z,22.20
2018-09-24T01:42:42.499Z,22.15
2018-09-24T01:47:25.350Z,22.23
2018-09-24T01:52:10.523Z,22.14
2018-09-24T01:56:53.360Z,22.16
2018-09-24T02:01:37.829Z,21.92
2018-09-24T02:06:20.685Z,22.05
2018-09-24T02:11:03.584Z,22.04
2018-09-24T02:15:48.602Z,22.07
2018-09-24T02:20:31.535Z,21.91
2018-09-24T02:25:15.502Z,22.06
2018-09-24T02:29:58.350Z,21.95
2018-09-24T02:34:42.405Z,21.90
2018-09-24T02:39:25.263Z,21.89
2018-09-24T02:44:08.592Z,21.89
2018-09-24T02:48:51.417Z,22.02
2018-09-24T02:53:38.846Z,21.83
2018-09-24T02:58:21.733Z,21.78
2018-09-24T03:03:10.759Z,21.93
2018-09-24T03:07:53.641Z,21.90
2018-09-24T03:12:37.913Z,21.92
2018-09-24T03:17:20.946Z,22.00
2018-09-24T03:22:03.873Z,21.85
2018-09-24T03:26:46.820Z,21.96
2018-09-24T03:31:35.991Z,21.84
2018-09-24T03:36:18.813Z,22.06
2018-09-24T03:41:01.648Z,22.07
2018-09-24T03:45:45.717Z,21.99
2018-09-24T03:50:28.569Z,22.26
2018-09-24T03:55:12.534Z,22.26
2018-09-24T03:59:55.498Z,22.23
2018-09-24T04:04:43.998Z,22.23
2018-09-24T04:09:32.415Z,21.96
2018-09-24T04:14:20.769Z,21.68
2018-09-24T04:19:08.980Z,22.03
2018-09-24T04:24:06.628Z,21.91
2018-09-24T04:28:54.954Z,21.90
2018-09-24T04:33:44.398Z,21.56
2018-09-24T04:38:32.705Z,21.47
2018-09-24T04:43:21.095Z,21.45
2018-09-24T04:48:09.482Z,21.58
2018-09-24T04:52:57.941Z,21.77
2018-09-24T04:57:47.722Z,21.82
2018-09-24T05:02:38.200Z,21.94
2018-09-24T05:07:26.649Z,21.96
2018-09-24T05:12:15.023Z,21.99
2018-09-24T05:17:08.086Z,22.17
2018-09-24T05:22:00.803Z,22.34
2018-09-24T05:26:49.115Z,22.28
2018-09-24T05:31:38.601Z,22.45
2018-09-24T05:36:27.067Z,22.55
2018-09-24T05:41:17.682Z,22.60
2018-09-24T05:46:05.941Z,22.92
2018-09-24T05:50:54.323Z,23.25
2018-09-24T05:55:45.512Z,23.30
2018-09-24T06:00:33.862Z,23.33
2018-09-24T06:05:22.850Z,23.51
2018-09-24T06:10:11.301Z,23.37
2018-09-24T06:14:59.905Z,23.46
2018-09-24T06:19:48.435Z,23.47
2018-09-24T06:24:36.778Z,23.64
2018-09-24T06:29:25.145Z,23.86
2018-09-24T06:34:15.562Z,23.97
2018-09-24T06:39:04.107Z,24.13
2018-09-24T06:43:52.782Z,24.30
2018-09-24T06:48:41.039Z,24.38
2018-09-24T06:53:30.516Z,24.34
2018-09-24T06:58:20.818Z,24.53
2018-09-24T07:03:09.591Z,24.92
2018-09-24T07:07:57.921Z,24.90
2018-09-24T07:12:48.495Z,25.23
2018-09-24T07:17:36.893Z,25.25
2018-09-24T07:22:25.409Z,25.43
2018-09-24T07:27:13.701Z,25.39
2018-09-24T07:32:03.071Z,25.69
2018-09-24T07:36:51.403Z,25.93
2018-09-24T07:41:40.871Z,25.93
2018-09-24T07:46:29.250Z,26.26
2018-09-24T07:51:17.866Z,26.49
2018-09-24T07:56:08.398Z,26.48
2018-09-24T08:00:57.944Z,26.28
2018-09-24T08:05:46.263Z,27.00
2018-09-24T08:10:34.550Z,26.76
2018-09-24T08:15:22.909Z,26.99
2018-09-24T08:20:11.463Z,27.00
2018-09-24T08:24:59.894Z,27.10
2018-09-24T08:29:48.322Z,27.86
2018-09-24T08:34:37.751Z,28.32
2018-09-24T08:39:26.160Z,28.25
2018-09-24T08:44:14.717Z,28.27
2018-09-24T08:49:03.207Z,28.16
2018-09-24T08:53:51.598Z,28.73
2018-09-24T08:58:42.043Z,29.08
2018-09-24T09:03:31.373Z,28.71
2018-09-24T09:08:19.918Z,29.31
2018-09-24T09:13:09.727Z,29.21
2018-09-24T09:17:59.809Z,29.78
2018-09-24T09:22:48.258Z,29.91
2018-09-24T09:27:48.876Z,29.92
2018-09-24T09:32:37.433Z,29.80
2018-09-24T09:37:26.135Z,30.26
2018-09-24T09:42:14.567Z,30.24
2018-09-24T09:48:32.376Z,30.26
2018-09-24T09:53:23.092Z,30.70
2018-09-24T09:58:12.175Z,30.96
2018-09-24T10:03:00.697Z,30.99
2018-09-24T10:07:49.431Z,31.10
2018-09-24T10:12:38.664Z,31.28
2018-09-24T10:17:27.135Z,31.26
2018-09-24T10:22:16.205Z,31.04
2018-09-24T10:27:04.533Z,31.27
2018-09-24T10:31:53.003Z,31.61
2018-09-24T10:36:41.382Z,31.45
2018-09-24T10:41:29.620Z,31.47
2018-09-24T10:46:25.775Z,31.54
2018-09-24T10:51:18.780Z,31.99
2018-09-24T10:56:07.091Z,31.93
2018-09-24T11:00:56.919Z,31.51
2018-09-24T11:05:45.352Z,31.51
2018-09-24T11:10:35.797Z,31.93
2018-09-24T11:15:24.171Z,31.82
2018-09-24T11:20:14.022Z,32.08
2018-09-24T11:25:07.375Z,32.41
2018-09-24T11:29:56.939Z,32.37
2018-09-24T11:34:45.322Z,32.47
2018-09-24T11:39:33.807Z,33.62
2018-09-24T11:44:23.283Z,33.53
2018-09-24T11:49:11.875Z,35.57
2018-09-24T11:54:01.038Z,34.30
2018-09-24T11:58:49.314Z,36.08
2018-09-24T12:03:37.851Z,34.40
2018-09-24T12:08:26.590Z,32.91
2018-09-24T12:13:15.118Z,33.90
2018-09-24T12:18:03.471Z,32.69
2018-09-24T12:23:08.988Z,34.15
2018-09-24T12:28:02.568Z,35.36
2018-09-24T12:32:51.912Z,35.67
2018-09-24T12:37:40.717Z,33.28
2018-09-24T12:42:30.515Z,32.38
2018-09-24T12:47:19.018Z,32.43
2018-09-24T12:52:07.457Z,31.64
2018-09-24T12:56:55.694Z,31.30
2018-09-24T13:01:43.998Z,31.07
2018-09-24T13:06:32.361Z,31.17
2018-09-24T13:11:22.353Z,30.62
2018-09-24T13:16:10.667Z,30.43
2018-09-24T13:21:00.621Z,30.45
2018-09-24T13:25:48.890Z,30.28
2018-09-24T13:30:38.500Z,30.08
2018-09-24T13:35:26.950Z,29.88
2018-09-24T13:40:17.059Z,29.94
2018-09-24T13:45:05.364Z,30.07
2018-09-24T13:49:53.924Z,29.77
2018-09-24T13:54:44.647Z,29.78
2018-09-24T13:59:33.114Z,29.63
2018-09-24T14:04:21.443Z,29.72
2018-09-24T14:09:12.398Z,29.77
2018-09-24T14:14:01.057Z,29.80
2018-09-24T14:18:49.391Z,29.84
2018-09-24T14:23:39.838Z,29.56
2018-09-24T14:28:28.199Z,29.26
2018-09-24T14:33:16.599Z,29.37
2018-09-24T14:38:05.377Z,29.37
2018-09-24T14:42:53.899Z,29.73
2018-09-24T14:47:42.418Z,29.76
2018-09-24T14:52:34.756Z,29.80
2018-09-24T14:57:23.166Z,29.90
2018-09-24T15:02:11.574Z,29.82
2018-09-24T15:06:59.807Z,29.82
2018-09-24T15:11:51.985Z,29.72
2018-09-24T15:16:40.662Z,29.69
2018-09-24T15:21:31.408Z,29.64
2018-09-24T15:26:19.866Z,29.50
2018-09-24T15:31:08.322Z,29.41
2018-09-24T15:36:03.638Z,29.33
2018-09-24T15:40:53.293Z,29.25
2018-09-24T15:45:42.159Z,29.14
2018-09-24T15:50:30.760Z,29.15
2018-09-24T15:55:20.221Z,29.11
2018-09-24T16:00:13.260Z,28.99
2018-09-24T16:05:01.707Z,29.00
2018-09-24T16:09:52.168Z,28.94
2018-09-24T16:14:40.549Z,28.69
2018-09-24T16:19:30.316Z,28.61
2018-09-24T16:24:18.854Z,28.53
2018-09-24T16:29:07.329Z,28.44
2018-09-24T16:33:56.115Z,28.48
2018-09-24T16:38:44.525Z,28.21
2018-09-24T16:43:34.887Z,28.20
2018-09-24T16:48:24.444Z,28.18
2018-09-24T16:53:12.969Z,28.07
2018-09-24T16:58:01.395Z,28.03
2018-09-24T17:02:49.669Z,27.95
2018-09-24T17:07:38.002Z,27.48
2018-09-24T17:12:55.204Z,27.31
2018-09-24T17:17:45.103Z,27.07
2018-09-24T17:22:33.901Z,26.81
2018-09-24T17:27:22.130Z,26.58
2018-09-24T17:32:13.666Z,26.25
2018-09-24T17:37:03.019Z,26.40
2018-09-24T17:41:51.584Z,25.95
2018-09-24T17:46:40.042Z,26.15
2018-09-24T17:51:28.494Z,25.71
2018-09-24T17:56:16.856Z,25.30
2018-09-24T18:01:07.168Z,25.48
2018-09-24T18:05:55.415Z,25.09
2018-09-24T18:10:44.768Z,25.08
2018-09-24T18:15:32.983Z,24.82
2018-09-24T18:20:22.323Z,24.72
2018-09-24T18:25:10.664Z,24.72
2018-09-24T18:29:59.114Z,24.15
2018-09-24T18:34:47.548Z,23.66
2018-09-24T18:39:37.035Z,23.47
2018-09-24T18:44:25.516Z,23.50
2018-09-24T18:49:18.366Z,23.53
2018-09-24T18:54:06.586Z,22.91
2018-09-24T18:58:55.033Z,23.21
2018-09-24T19:03:43.412Z,22.84
2018-09-24T19:08:31.694Z,22.87
2018-09-24T19:13:21.226Z,22.50
2018-09-24T19:18:09.606Z,22.47
2018-09-24T19:22:58.135Z,22.61
2018-09-24T19:27:46.425Z,22.55
2018-09-24T19:32:35.886Z,22.44
2018-09-24T19:37:24.343Z,22.39
2018-09-24T19:42:12.884Z,22.40
2018-09-24T19:47:01.253Z,22.29
2018-09-24T19:51:49.694Z,22.01
2018-09-24T19:56:37.994Z,21.74
2018-09-24T20:01:26.778Z,21.75
2018-09-24T20:06:15.355Z,21.70
2018-09-24T20:11:04.842Z,21.91
2018-09-24T20:15:53.250Z,21.53
2018-09-24T20:20:42.790Z,21.57
2018-09-24T20:25:31.070Z,21.25
2018-09-24T20:30:20.466Z,21.59
2018-09-24T20:35:08.834Z,21.19
2018-09-24T20:39:57.373Z,21.44
2018-09-24T20:46:15.177Z,20.26
2018-09-24T20:51:04.531Z,20.56
2018-09-24T20:55:52.904Z,20.13
2018-09-24T21:00:42.460Z,20.04
2018-09-24T21:05:30.695Z,20.01
2018-09-24T21:10:20.178Z,19.88
2018-09-24T21:15:08.511Z,20.02
2018-09-24T21:19:56.903Z,20.32
2018-09-24T21:24:45.698Z,20.19
2018-09-24T21:29:35.229Z,19.66
2018-09-24T21:34:23.414Z,19.29
2018-09-24T21:39:12.528Z,19.25
2018-09-24T21:44:00.757Z,19.48
2018-09-24T21:48:50.183Z,19.14
2018-09-24T21:53:38.478Z,19.86
2018-09-24T21:58:26.660Z,19.19
2018-09-24T22:03:15.037Z,18.91
2018-09-24T22:08:03.265Z,18.67
2018-09-24T22:12:51.554Z,19.17
2018-09-24T22:17:39.763Z,18.37
2018-09-24T22:22:28.097Z,18.54
2018-09-24T22:27:16.475Z,17.89
2018-09-24T22:32:06.029Z,17.86
2018-09-24T22:36:54.783Z,18.06
2018-09-24T22:41:43.243Z,18.13
2018-09-24T22:46:31.693Z,17.67
2018-09-24T22:51:21.125Z,17.54
2018-09-24T22:56:09.466Z,17.52
2018-09-24T23:01:00.448Z,17.67
2018-09-24T23:05:48.786Z,17.17
2018-09-24T23:10:38.322Z,17.47
2018-09-24T23:15:26.945Z,17.59
2018-09-24T23:20:16.708Z,16.69
2018-09-24T23:25:05.175Z,17.02
2018-09-24T23:29:53.345Z,17.64
2018-09-24T23:34:42.085Z,17.29
2018-09-24T23:39:31.684Z,16.96
2018-09-24T23:44:20.013Z,17.45
2018-09-24T23:49:08.453Z,17.51
2018-09-24T23:53:57.170Z,17.36
2018-09-24T23:58:45.929Z,16.98
